エドモントン の空港の天気 - METARとTAF

エドモントン国際空港 ( CYEG / YEG ) - カナダ アルバータ州Edmonton Capital Region
飛行場実況気象(Metar)
観測時間12/01 16:00 MST (12/01 23:00 UTC)
風向・風速南 4m/s
視程10km以上
天気現象
少しの雲 雲底高度 2440m
少しの雲 雲底高度 7620m
気温-4℃
湿度58%
気圧1028.7hPa
METARCYEG 012300Z 19007KT 20SM FEW080 FEW250 M04/M11 A3026 RMK AC1CI1 AC TR SLP287
過去の天気等 Google飛行場航空写真 Wunderground天気予報

過去48時間のMETAR

飛行場予報(TAF)
発表時間: 12/01 16:38 MST (12/01 23:38 UTC)
予報対象時間: 1日17時 MST ~ 2日17時 MST
風向・風速南南西 4m/s
視程10km以上
少しの雲 雲底高度 2440m
少しの雲 雲底高度 7620m
1日21時 MST ~ 1日23時 MST に徐々に
風向・風速西南西 4m/s
2日13時 MST ~ 2日15時 MST に徐々に
風向・風速南南東 4m/s
TAF CYEG 012338Z 0200/0224 20008KT P6SM FEW080 FEW250
BECMG 0204/0206 24008KT
BECMG 0220/0222 16008KT RMK NXT FCST BY 020300Z